Time;durP1;ratioP1;P1;durP2;ratioP2;P2;SDS_P1;SDS_P2;PMS_P1;PMS_P2;Temp;Humidity;BMP_temperature;BMP_pressure;BME280_temperature;BME280_humidity;BME280_pressure;Samples;Min_cycle;Max_cycle;Signal;HPM_P1;HPM_P2
2021/05/27 00:02:07;;;;;;;4.72;4.32;;;;;;;14.34;71.70;96422.75;5113567;28;20024;-62
2021/05/27 00:04:36;;;;;;;7.70;3.75;;;;;;;14.32;71.52;96425.47;5113556;28;20060;-63
2021/05/27 00:07:01;;;;;;;4.45;4.05;;;;;;;14.24;71.95;96423.25;5113619;28;20051;-60
2021/05/27 00:09:27;;;;;;;4.35;4.00;;;;;;;14.11;72.13;96417.81;5113604;28;20046;-64
2021/05/27 00:11:53;;;;;;;6.13;4.35;;;;;;;14.08;72.75;96412.72;5113416;28;20393;-64
2021/05/27 00:14:19;;;;;;;7.35;4.20;;;;;;;14.11;72.21;96419.59;5113486;28;20047;-64
2021/05/27 00:16:45;;;;;;;5.00;3.92;;;;;;;14.07;72.22;96426.81;5113490;28;20020;-63
2021/05/27 00:19:11;;;;;;;8.32;4.07;;;;;;;14.09;71.84;96426.72;5113423;28;20043;-60
2021/05/27 00:21:37;;;;;;;6.05;4.18;;;;;;;14.07;71.77;96425.94;5113385;28;20103;-58
2021/05/27 00:24:03;;;;;;;5.63;3.80;;;;;;;14.09;72.11;96421.47;5113334;28;20024;-61
2021/05/27 00:26:28;;;;;;;6.38;3.65;;;;;;;14.06;71.69;96419.00;5113289;28;20359;-62
2021/05/27 00:28:54;;;;;;;4.50;4.10;;;;;;;13.99;71.45;96418.47;5113251;28;20034;-60
2021/05/27 00:31:20;;;;;;;6.88;4.32;;;;;;;13.96;71.68;96421.25;5113437;28;20027;-58
2021/05/27 00:33:45;;;;;;;5.28;3.90;;;;;;;13.96;71.84;96416.84;5113334;28;20503;-62
2021/05/27 00:36:11;;;;;;;4.57;4.18;;;;;;;13.93;71.77;96421.44;5113059;28;20066;-59
2021/05/27 00:38:36;;;;;;;5.35;4.85;;;;;;;13.88;72.19;96412.00;5113174;28;20023;-64
2021/05/27 00:41:02;;;;;;;8.57;5.15;;;;;;;13.71;72.92;96425.19;5113217;28;20035;-61
2021/05/27 00:43:28;;;;;;;9.15;4.97;;;;;;;13.66;73.21;96420.19;5116035;28;20473;-61
2021/05/27 00:45:53;;;;;;;6.22;5.68;;;;;;;13.71;73.22;96412.91;5117310;28;20100;-57
2021/05/27 00:51:03;;;;;;;6.47;4.60;;;;;;;13.63;72.38;96407.19;5117488;28;20041;-59
2021/05/27 00:53:28;;;;;;;4.57;4.18;;;;;;;13.63;72.29;96417.72;5116925;28;20016;-62
2021/05/27 00:55:55;;;;;;;5.05;4.55;;;;;;;13.69;72.46;96404.25;5117132;28;20103;-63
2021/05/27 00:58:25;;;;;;;4.72;4.32;;;;;;;13.70;72.41;96397.22;5116950;28;20032;-61
2021/05/27 01:00:51;;;;;;;13.25;5.18;;;;;;;13.72;72.47;96390.09;5117043;28;20055;-58
2021/05/27 01:03:17;;;;;;;5.50;5.00;;;;;;;13.72;72.70;96377.81;5116895;28;20062;-60
2021/05/27 01:05:44;;;;;;;8.63;6.53;;;;;;;13.74;73.16;96383.84;5116890;28;20105;-61
2021/05/27 01:08:09;;;;;;;8.90;5.15;;;;;;;13.73;72.69;96386.56;5116733;28;20028;-57
2021/05/27 01:10:35;;;;;;;9.63;6.00;;;;;;;13.67;72.85;96392.97;5116727;28;20024;-58
2021/05/27 01:13:01;;;;;;;8.85;5.78;;;;;;;13.70;73.34;96392.78;5116728;28;20088;-62
2021/05/27 01:15:38;;;;;;;7.80;6.32;;;;;;;13.65;73.30;96389.56;5116701;28;20031;-62
2021/05/27 01:18:09;;;;;;;6.78;5.95;;;;;;;13.59;73.89;96385.50;5116552;28;20051;-59
2021/05/27 01:20:37;;;;;;;8.20;6.57;;;;;;;13.61;73.62;96374.91;5116440;28;20095;-58
2021/05/27 01:23:03;;;;;;;10.82;8.13;;;;;;;13.64;73.73;96383.47;5116420;28;20019;-62
2021/05/27 01:25:30;;;;;;;11.57;10.43;;;;;;;13.68;74.76;96378.91;5116496;28;20027;-61
2021/05/27 01:27:55;;;;;;;14.48;9.23;;;;;;;13.71;74.38;96386.63;5116557;28;20085;-61
2021/05/27 01:30:22;;;;;;;8.82;7.20;;;;;;;13.73;73.89;96370.78;5116392;28;20024;-62
2021/05/27 01:32:48;;;;;;;8.45;7.22;;;;;;;13.75;73.38;96369.75;5116307;28;20478;-60
2021/05/27 01:35:16;;;;;;;14.98;10.50;;;;;;;13.70;73.88;96377.03;5115991;28;20052;-59
2021/05/27 01:37:42;;;;;;;13.70;12.30;;;;;;;13.58;74.81;96368.00;5116233;28;20149;-59
2021/05/27 01:40:09;;;;;;;14.10;12.55;;;;;;;13.50;75.31;96364.94;5116206;28;20117;-61
2021/05/27 01:42:34;;;;;;;12.90;11.20;;;;;;;13.51;74.75;96367.50;5116086;28;20031;-60
2021/05/27 01:45:00;;;;;;;14.10;10.82;;;;;;;13.51;74.61;96372.75;5116023;28;20016;-59
2021/05/27 01:47:26;;;;;;;12.02;10.73;;;;;;;13.50;74.24;96367.59;5114856;28;20019;-61
2021/05/27 01:49:51;;;;;;;11.90;9.90;;;;;;;13.54;74.25;96370.91;5116148;28;20096;-64
2021/05/27 01:52:17;;;;;;;11.55;9.30;;;;;;;13.56;74.16;96367.25;5115977;28;20028;-56
2021/05/27 01:54:42;;;;;;;10.52;8.52;;;;;;;13.51;73.69;96361.38;5114740;28;20389;-60
2021/05/27 01:57:08;;;;;;;10.30;9.30;;;;;;;13.54;73.74;96355.16;5115739;28;20055;-59
2021/05/27 01:59:34;;;;;;;9.52;8.63;;;;;;;13.53;73.73;96359.53;5115808;28;20062;-59
2021/05/27 02:01:59;;;;;;;9.60;8.70;;;;;;;13.55;73.60;96364.72;5115801;28;20047;-61
2021/05/27 02:04:25;;;;;;;10.90;8.98;;;;;;;13.56;74.05;96362.00;5115685;28;20394;-59
2021/05/27 02:06:50;;;;;;;11.80;8.77;;;;;;;13.59;73.92;96363.63;5115546;28;20067;-60
2021/05/27 02:09:16;;;;;;;9.27;7.53;;;;;;;13.61;73.65;96359.97;5115608;28;20102;-64
2021/05/27 02:11:44;;;;;;;9.77;8.77;;;;;;;13.65;73.71;96368.56;5115571;28;20538;-62
2021/05/27 02:14:12;;;;;;;11.15;7.82;;;;;;;13.65;73.34;96360.66;5115647;28;20031;-58
2021/05/27 02:16:39;;;;;;;8.93;7.55;;;;;;;13.68;72.86;96363.13;5115344;28;20019;-62
2021/05/27 02:19:06;;;;;;;8.40;7.03;;;;;;;13.67;72.71;96369.34;5115321;28;20496;-63
2021/05/27 02:21:31;;;;;;;6.25;5.65;;;;;;;13.57;72.73;96368.94;5115317;28;20537;-60
2021/05/27 02:23:59;;;;;;;6.55;5.95;;;;;;;13.57;72.62;96379.47;5115184;28;20024;-60
2021/05/27 02:26:26;;;;;;;7.07;6.43;;;;;;;13.47;73.12;96362.44;5115310;28;20023;-54
2021/05/27 02:28:52;;;;;;;8.27;7.47;;;;;;;13.43;73.48;96358.28;5115351;28;20137;-54
2021/05/27 02:31:19;;;;;;;9.55;8.20;;;;;;;13.40;73.53;96352.25;5115274;28;20103;-60
2021/05/27 02:33:45;;;;;;;17.45;9.13;;;;;;;13.33;74.02;96355.31;5115154;28;20467;-62
2021/05/27 02:36:11;;;;;;;16.33;8.70;;;;;;;13.16;74.91;96350.91;5114933;28;20074;-59
2021/05/27 02:38:37;;;;;;;9.80;8.80;;;;;;;13.10;75.19;96352.09;5114908;28;20031;-60
2021/05/27 02:41:05;;;;;;;10.63;9.52;;;;;;;13.03;75.50;96348.91;5115056;28;20023;-64
2021/05/27 02:43:32;;;;;;;9.25;7.90;;;;;;;13.09;75.34;96348.59;5115059;28;20020;-60
2021/05/27 02:45:58;;;;;;;8.80;7.93;;;;;;;13.08;75.40;96351.31;5114876;28;20481;-55
2021/05/27 02:48:24;;;;;;;9.77;7.35;;;;;;;13.18;74.80;96356.94;5114913;28;20034;-61
2021/05/27 02:50:50;;;;;;;11.25;8.02;;;;;;;13.23;74.52;96357.56;5114843;28;20381;-60
2021/05/27 02:53:15;;;;;;;8.13;7.00;;;;;;;13.24;74.88;96357.47;5114834;28;20393;-62
2021/05/27 02:55:41;;;;;;;9.18;8.27;;;;;;;13.16;74.49;96356.16;5114647;28;20026;-60
2021/05/27 02:58:07;;;;;;;8.70;7.90;;;;;;;13.15;74.71;96363.19;5114528;28;20024;-59
2021/05/27 03:00:32;;;;;;;8.18;7.47;;;;;;;13.14;75.21;96362.34;5114773;28;20022;-63
2021/05/27 03:02:58;;;;;;;8.82;6.82;;;;;;;13.20;75.24;96363.81;5114501;28;20019;-62
2021/05/27 03:05:24;;;;;;;7.78;6.95;;;;;;;13.24;75.36;96361.88;5114386;28;20034;-61
2021/05/27 03:07:49;;;;;;;9.32;7.47;;;;;;;13.30;75.39;96353.66;5114452;28;20023;-61
2021/05/27 03:10:15;;;;;;;8.68;7.88;;;;;;;13.34;75.21;96355.22;5114385;28;20041;-60
2021/05/27 03:12:40;;;;;;;11.32;10.20;;;;;;;13.34;75.18;96351.75;5114375;28;20035;-64
2021/05/27 03:15:08;;;;;;;56.05;11.50;;;;;;;13.33;75.94;96353.50;5114489;28;20028;-59
2021/05/27 03:17:34;;;;;;;17.02;10.98;;;;;;;13.39;76.07;96357.59;5114195;28;20016;-63
2021/05/27 03:20:00;;;;;;;24.55;10.05;;;;;;;13.43;75.89;96353.91;5114169;28;20049;-59
2021/05/27 03:22:26;;;;;;;26.23;8.70;;;;;;;13.42;75.38;96367.13;5114213;28;20049;-60
2021/05/27 03:24:52;;;;;;;173.95;11.95;;;;;;;13.36;75.18;96363.88;5114187;27;20027;-64
2021/05/27 03:27:18;;;;;;;109.03;12.50;;;;;;;13.27;76.34;96378.34;5114097;28;20434;-65
2021/05/27 03:29:43;;;;;;;46.85;12.07;;;;;;;13.24;76.79;96373.22;5114064;28;20031;-62
2021/05/27 03:32:09;;;;;;;68.40;13.63;;;;;;;13.27;77.16;96366.97;5114057;28;20493;-61
2021/05/27 03:34:34;;;;;;;128.35;14.43;;;;;;;13.25;77.36;96360.97;5113766;28;20032;-54
2021/05/27 03:37:00;;;;;;;11.90;10.27;;;;;;;13.29;77.24;96366.88;5113774;28;20047;-58
2021/05/27 03:39:25;;;;;;;11.20;10.20;;;;;;;13.50;76.87;96378.09;5113805;28;20026;-62
2021/05/27 03:41:51;;;;;;;9.30;8.50;;;;;;;13.75;76.52;96376.78;5113798;28;20415;-64
2021/05/27 03:44:17;;;;;;;8.25;7.55;;;;;;;14.01;75.59;96391.19;5113806;28;20016;-64
2021/05/27 03:46:42;;;;;;;8.88;8.05;;;;;;;14.19;74.82;96393.72;5113730;28;20020;-55
2021/05/27 03:49:08;;;;;;;10.45;7.60;;;;;;;14.36;73.91;96377.00;5113745;28;20039;-59
2021/05/27 03:51:34;;;;;;;7.65;6.95;;;;;;;14.68;73.31;96375.25;5113719;28;20027;-60
2021/05/27 03:53:59;;;;;;;6.25;5.75;;;;;;;15.10;72.10;96375.50;5113791;28;20389;-60
2021/05/27 03:56:26;;;;;;;7.68;5.28;;;;;;;15.49;71.39;96370.59;5113625;28;20019;-60
2021/05/27 04:01:36;;;;;;;5.15;4.75;;;;;;;16.44;68.91;96372.69;5113664;28;20034;-62
2021/05/27 04:09:30;;;;;;;4.63;4.22;;;;;;;16.85;67.79;96360.34;5113861;28;20051;-59
2021/05/27 04:12:45;;;;;;;4.70;4.30;;;;;;;17.15;67.91;96356.63;5113437;28;20466;-57
2021/05/27 04:14:41;;;;;;;12.13;4.10;;;;;;;17.37;66.83;96357.78;5113507;28;20168;-59
2021/05/27 04:17:07;;;;;;;4.18;3.88;;;;;;;17.38;66.91;96358.66;5114092;28;20381;-61
2021/05/27 04:19:33;;;;;;;4.43;4.03;;;;;;;17.41;67.20;96355.81;5117640;28;20023;-59
2021/05/27 04:21:58;;;;;;;5.70;4.40;;;;;;;17.38;67.22;96364.81;5117719;28;20031;-61
2021/05/27 04:24:24;;;;;;;5.00;4.40;;;;;;;17.36;67.67;96364.03;5117725;28;20034;-60
2021/05/27 04:26:50;;;;;;;4.22;3.90;;;;;;;17.39;67.71;96362.97;5117583;28;20016;-61
2021/05/27 04:29:15;;;;;;;4.38;4.00;;;;;;;17.42;67.85;96373.34;5117652;28;20020;-64
2021/05/27 04:31:41;;;;;;;3.92;3.53;;;;;;;17.59;66.97;96363.41;5117558;28;20032;-60
2021/05/27 04:34:07;;;;;;;4.07;3.55;;;;;;;17.71;66.43;96367.84;5117388;28;20024;-65
2021/05/27 04:36:32;;;;;;;5.93;4.18;;;;;;;17.75;66.30;96368.47;5117192;28;20039;-62
2021/05/27 04:38:58;;;;;;;4.10;3.80;;;;;;;17.79;66.02;96362.84;5117285;28;20501;-62
2021/05/27 04:41:23;;;;;;;7.10;4.13;;;;;;;17.88;65.95;96358.72;5117182;28;20104;-63
2021/05/27 04:43:57;;;;;;;4.45;3.63;;;;;;;18.06;65.35;96367.16;5117161;28;20106;-62
2021/05/27 04:46:23;;;;;;;5.70;4.15;;;;;;;18.01;65.48;96371.09;5117294;28;20076;-63
2021/05/27 04:48:48;;;;;;;4.40;4.00;;;;;;;17.97;65.74;96367.81;5117057;28;20423;-59
2021/05/27 04:51:14;;;;;;;4.68;4.25;;;;;;;17.98;65.51;96361.56;5117186;28;20015;-61
2021/05/27 04:53:39;;;;;;;5.25;4.75;;;;;;;18.03;65.71;96366.53;5117165;28;20527;-61
2021/05/27 04:56:06;;;;;;;8.07;4.40;;;;;;;18.09;64.99;96367.91;5117007;28;20056;-58
2021/05/27 04:58:31;;;;;;;6.38;3.78;;;;;;;18.09;65.39;96365.25;5116811;28;20032;-60
2021/05/27 05:00:58;;;;;;;6.00;3.88;;;;;;;18.14;65.27;96363.13;5116855;28;20030;-62
2021/05/27 05:03:24;;;;;;;4.63;4.03;;;;;;;18.19;65.08;96380.38;5116886;28;20036;-60
2021/05/27 05:05:50;;;;;;;5.20;4.10;;;;;;;18.23;65.65;96372.22;5116930;28;20019;-60
2021/05/27 05:08:15;;;;;;;4.13;3.83;;;;;;;18.18;65.94;96372.53;5116931;28;20027;-64
2021/05/27 05:10:43;;;;;;;5.38;4.18;;;;;;;18.14;66.10;96379.03;5116685;28;20023;-65
2021/05/27 05:13:09;;;;;;;4.47;4.07;;;;;;;18.12;66.38;96379.13;5116731;28;20019;-59
2021/05/27 05:15:37;;;;;;;5.78;4.28;;;;;;;18.11;66.28;96374.81;5116696;28;20019;-63
2021/05/27 05:18:05;;;;;;;4.93;4.50;;;;;;;18.14;66.12;96381.66;5116531;28;20076;-61
2021/05/27 05:20:36;;;;;;;6.55;4.95;;;;;;;18.22;66.26;96381.97;5116653;28;20024;-63
2021/05/27 05:23:05;;;;;;;5.28;4.68;;;;;;;18.33;66.18;96385.66;5116584;28;20049;-63
2021/05/27 05:25:33;;;;;;;8.40;4.18;;;;;;;18.67;65.08;96376.06;5116542;28;20016;-62
2021/05/27 05:27:59;;;;;;;6.30;4.32;;;;;;;18.85;65.10;96374.84;5115098;28;20033;-62
2021/05/27 05:30:27;;;;;;;7.55;5.03;;;;;;;18.92;64.95;96376.06;5116387;28;20498;-64
2021/05/27 05:32:53;;;;;;;4.47;4.07;;;;;;;18.96;64.43;96382.00;5116352;28;20027;-63
2021/05/27 05:35:20;;;;;;;7.07;4.70;;;;;;;18.97;64.51;96383.69;5116221;28;20050;-63
2021/05/27 05:37:47;;;;;;;3.90;3.60;;;;;;;19.02;63.89;96378.91;5116285;28;20122;-60
2021/05/27 05:40:15;;;;;;;5.00;3.63;;;;;;;19.05;63.51;96382.16;5116223;28;20073;-62
2021/05/27 05:42:41;;;;;;;4.32;3.67;;;;;;;19.12;62.83;96392.31;5116347;28;20153;-62
2021/05/27 05:45:13;;;;;;;4.63;3.30;;;;;;;19.12;61.24;96395.81;5116166;28;20081;-61
2021/05/27 05:47:39;;;;;;;4.15;3.58;;;;;;;19.08;61.77;96404.94;5116038;28;20024;-59
2021/05/27 05:50:06;;;;;;;3.90;3.08;;;;;;;19.09;62.55;96406.66;5116070;28;20149;-62
2021/05/27 05:52:32;;;;;;;3.72;3.03;;;;;;;19.13;61.93;96400.16;5115997;28;20019;-60
2021/05/27 05:54:57;;;;;;;10.32;3.28;;;;;;;19.49;60.88;96404.56;5116073;28;20038;-59
2021/05/27 05:57:23;;;;;;;5.63;3.33;;;;;;;19.84;60.67;96401.03;5115780;28;20069;-63
2021/05/27 05:59:48;;;;;;;3.40;2.83;;;;;;;20.08;60.49;96406.22;5115773;28;20020;-60
2021/05/27 06:02:14;;;;;;;3.25;2.95;;;;;;;20.32;59.56;96404.41;5115856;28;20112;-60
2021/05/27 06:04:39;;;;;;;3.78;2.80;;;;;;;20.73;58.85;96411.78;5115838;28;20107;-64
2021/05/27 06:07:05;;;;;;;5.60;2.60;;;;;;;21.45;57.82;96407.66;5115710;28;20019;-62
2021/05/27 06:09:31;;;;;;;4.60;2.33;;;;;;;21.73;54.90;96415.09;5115703;28;20053;-62
2021/05/27 06:11:56;;;;;;;3.00;2.13;;;;;;;22.01;55.44;96410.09;5115623;28;20051;-60
2021/05/27 06:14:22;;;;;;;4.07;2.25;;;;;;;22.74;54.51;96413.56;5115628;28;20020;-63
2021/05/27 06:16:48;;;;;;;2.65;1.98;;;;;;;23.41;52.80;96410.22;5115538;28;20077;-64
2021/05/27 06:19:14;;;;;;;4.97;2.47;;;;;;;23.54;52.17;96404.56;5115432;28;20028;-65
2021/05/27 06:21:40;;;;;;;3.92;2.42;;;;;;;23.79;51.43;96404.97;5115496;28;20386;-61
2021/05/27 06:24:07;;;;;;;4.13;2.40;;;;;;;23.96;50.52;96403.34;5115465;28;20072;-64
2021/05/27 06:26:33;;;;;;;4.43;2.20;;;;;;;23.96;50.43;96403.34;5115160;28;20098;-64
2021/05/27 06:28:59;;;;;;;2.65;2.13;;;;;;;23.82;49.79;96394.00;5115335;28;20034;-65
2021/05/27 06:31:25;;;;;;;2.63;2.13;;;;;;;23.60;49.73;96404.00;5115385;28;20023;-64
2021/05/27 06:33:50;;;;;;;2.80;2.25;;;;;;;23.43;51.02;96410.94;5115157;28;20465;-62
2021/05/27 06:36:17;;;;;;;6.65;2.78;;;;;;;23.15;52.95;96415.28;5114844;28;20039;-60
2021/05/27 06:38:42;;;;;;;5.90;2.60;;;;;;;22.86;53.72;96411.59;5115017;28;20406;-64
2021/05/27 06:41:09;;;;;;;6.93;2.70;;;;;;;22.67;54.05;96407.09;5114480;28;20030;-62
2021/05/27 06:43:35;;;;;;;4.57;2.72;;;;;;;22.52;54.23;96409.28;5114968;28;20488;-66
2021/05/27 06:46:01;;;;;;;9.23;3.38;;;;;;;22.62;55.78;96417.31;5114847;28;20027;-61
2021/05/27 06:48:26;;;;;;;6.47;3.55;;;;;;;22.76;58.75;96418.75;5114903;28;20473;-65
2021/05/27 06:50:52;;;;;;;11.48;3.38;;;;;;;23.15;58.68;96409.94;5114810;28;20401;-62
2021/05/27 06:53:18;;;;;;;5.22;2.70;;;;;;;23.72;57.11;96407.34;5113516;28;20054;-63
2021/05/27 06:55:45;;;;;;;6.80;2.75;;;;;;;23.91;53.00;96413.63;5114831;28;20091;-65
2021/05/27 06:58:12;;;;;;;3.80;2.50;;;;;;;24.09;53.84;96412.88;5114592;28;20106;-64
2021/05/27 07:00:39;;;;;;;5.38;2.30;;;;;;;24.26;52.97;96413.94;5114605;28;20028;-65
2021/05/27 07:03:06;;;;;;;3.80;2.67;;;;;;;24.25;51.92;96409.59;5114548;28;20426;-63
2021/05/27 07:05:32;;;;;;;6.38;3.10;;;;;;;24.18;52.44;96421.84;5114577;28;20043;-65
2021/05/27 07:07:59;;;;;;;5.38;2.63;;;;;;;24.06;54.14;96418.50;5114489;28;20020;-62
2021/05/27 07:10:25;;;;;;;8.75;3.00;;;;;;;24.02;53.88;96420.59;5114531;28;20062;-62
2021/05/27 07:12:53;;;;;;;4.53;2.92;;;;;;;24.07;54.30;96413.00;5114376;28;20051;-64
2021/05/27 07:15:20;;;;;;;8.45;2.67;;;;;;;24.35;53.21;96414.91;5114370;28;20020;-64
2021/05/27 07:17:50;;;;;;;5.18;2.67;;;;;;;24.63;53.20;96422.06;5114209;28;20015;-63
2021/05/27 07:20:17;;;;;;;4.10;2.50;;;;;;;24.73;51.71;96410.31;5114314;28;20057;-65
2021/05/27 07:22:43;;;;;;;3.30;2.28;;;;;;;24.30;51.07;96398.47;5114314;28;20423;-62
2021/05/27 07:25:09;;;;;;;5.85;2.42;;;;;;;23.78;50.79;96387.22;5114096;28;20084;-65
2021/05/27 07:27:36;;;;;;;3.75;2.83;;;;;;;23.30;53.17;96386.34;5114275;28;20065;-60
2021/05/27 07:30:04;;;;;;;3.70;2.97;;;;;;;22.74;53.71;96376.25;5114190;28;20016;-62
2021/05/27 07:32:30;;;;;;;5.55;3.03;;;;;;;22.50;56.60;96398.75;5114285;28;20051;-63
2021/05/27 07:34:55;;;;;;;5.45;3.30;;;;;;;22.32;58.23;96404.75;5113852;28;20079;-62
2021/05/27 07:37:21;;;;;;;7.53;3.17;;;;;;;22.24;58.38;96396.56;5113926;28;20537;-64
2021/05/27 07:39:49;;;;;;;3.97;2.95;;;;;;;22.20;58.57;96403.16;5113924;28;20400;-60
2021/05/27 07:42:15;;;;;;;4.68;3.35;;;;;;;22.12;58.79;96406.47;5114082;28;20381;-64
2021/05/27 07:44:40;;;;;;;29.08;22.90;;;;;;;22.06;59.61;96420.31;5113880;28;20107;-65
2021/05/27 07:47:06;;;;;;;17.75;14.38;;;;;;;22.01;59.98;96426.09;5113677;28;20051;-64
2021/05/27 07:49:32;;;;;;;7.75;5.15;;;;;;;21.87;59.80;96424.59;5113813;28;20019;-60
2021/05/27 07:51:59;;;;;;;14.57;6.05;;;;;;;21.75;61.77;96422.94;5111766;28;20046;-64
2021/05/27 07:54:26;;;;;;;16.98;4.95;;;;;;;21.60;62.52;96420.63;5113831;28;20114;-61
2021/05/27 07:56:52;;;;;;;12.93;5.47;;;;;;;21.43;61.98;96430.06;5113712;28;20019;-61
2021/05/27 07:59:18;;;;;;;9.65;5.82;;;;;;;21.30;63.84;96438.19;5113530;28;20047;-64
2021/05/27 08:01:44;;;;;;;11.25;5.80;;;;;;;21.39;65.63;96447.22;5113616;28;20460;-60
2021/05/27 08:04:10;;;;;;;10.95;6.43;;;;;;;21.71;63.59;96449.81;5113575;28;20067;-66
2021/05/27 08:06:36;;;;;;;14.15;6.20;;;;;;;21.93;64.75;96442.72;5113709;28;20424;-59
2021/05/27 08:09:06;;;;;;;11.02;6.32;;;;;;;22.13;63.54;96442.81;5113625;28;20396;-62
2021/05/27 08:11:31;;;;;;;12.80;7.60;;;;;;;22.41;64.83;96443.06;5113536;28;20040;-60
2021/05/27 08:13:57;;;;;;;11.50;5.50;;;;;;;22.99;59.45;96442.50;5113729;28;20055;-60
2021/05/27 08:16:23;;;;;;;9.40;5.38;;;;;;;23.50;60.33;96450.41;5113626;28;20024;-63
2021/05/27 08:18:48;;;;;;;12.82;5.32;;;;;;;24.07;57.82;96442.41;5113390;28;20036;-62
2021/05/27 08:21:14;;;;;;;6.43;5.07;;;;;;;24.39;53.84;96444.81;5113569;28;20027;-64
2021/05/27 08:23:40;;;;;;;14.52;5.43;;;;;;;24.34;57.32;96442.59;5113663;28;20058;-59
2021/05/27 08:26:05;;;;;;;9.18;5.22;;;;;;;24.33;57.02;96451.63;5113605;28;20031;-63
2021/05/27 08:28:31;;;;;;;5.40;4.90;;;;;;;24.35;56.84;96453.13;5113500;28;20043;-63
2021/05/27 08:30:57;;;;;;;6.18;4.65;;;;;;;24.36;54.77;96449.47;5113494;28;20024;-61
2021/05/27 08:33:23;;;;;;;7.90;5.03;;;;;;;24.52;55.47;96444.47;5113432;28;20015;-64
2021/05/27 08:35:48;;;;;;;12.60;4.85;;;;;;;24.55;53.88;96436.16;5113148;28;20043;-62
2021/05/27 08:38:14;;;;;;;12.63;4.57;;;;;;;24.41;54.11;96427.66;5113315;28;20039;-66
2021/05/27 08:40:40;;;;;;;6.20;4.60;;;;;;;23.84;54.08;96428.56;5112257;28;20431;-64
2021/05/27 08:43:07;;;;;;;6.93;4.25;;;;;;;23.41;55.21;96420.03;5113379;28;20106;-66
2021/05/27 08:45:36;;;;;;;11.43;4.90;;;;;;;23.16;55.58;96431.13;5113265;28;20024;-60
2021/05/27 08:48:02;;;;;;;6.88;5.47;;;;;;;22.98;57.89;96439.00;5113148;28;20046;-62
2021/05/27 08:50:31;;;;;;;5.97;4.60;;;;;;;22.94;58.35;96435.75;5113224;28;20024;-63
2021/05/27 08:52:57;;;;;;;9.70;4.57;;;;;;;23.00;58.28;96431.69;5113330;28;20098;-61
2021/05/27 08:55:23;;;;;;;7.35;5.47;;;;;;;22.85;57.08;96421.41;5113259;28;20034;-64
2021/05/27 08:57:50;;;;;;;12.07;5.65;;;;;;;22.58;57.53;96425.59;5112993;28;20028;-56
2021/05/27 09:00:16;;;;;;;9.05;6.82;;;;;;;21.96;58.27;96417.63;5113013;28;20049;-63
2021/05/27 09:03:02;;;;;;;12.07;8.02;;;;;;;21.51;60.13;96408.09;5113324;28;20026;-63
2021/05/27 09:05:31;;;;;;;10.75;8.63;;;;;;;21.24;60.32;96420.94;5117127;28;20039;-58
2021/05/27 09:07:58;;;;;;;10.57;8.07;;;;;;;21.26;61.60;96434.97;5116894;28;20027;-62
2021/05/27 09:10:47;;;;;;;10.45;9.20;;;;;;;21.31;61.48;96445.22;5116885;28;20027;-64
2021/05/27 09:13:18;;;;;;;11.55;8.98;;;;;;;21.34;60.54;96440.47;5116986;28;20373;-60
2021/05/27 09:15:50;;;;;;;12.98;10.30;;;;;;;21.34;60.82;96437.81;5116755;28;20030;-58
2021/05/27 09:18:30;;;;;;;14.95;9.65;;;;;;;21.50;62.81;96438.34;5116643;28;20073;-64
2021/05/27 09:20:57;;;;;;;11.32;10.10;;;;;;;21.65;63.83;96442.38;5116718;28;20034;-66
2021/05/27 09:23:22;;;;;;;11.77;9.73;;;;;;;21.69;62.99;96438.47;5116602;28;20481;-63
2021/05/27 09:26:03;;;;;;;13.23;9.48;;;;;;;21.71;60.80;96433.84;5116524;28;20016;-63
2021/05/27 09:28:29;;;;;;;12.95;9.85;;;;;;;21.64;62.43;96423.88;5116496;28;20027;-63
2021/05/27 09:31:06;;;;;;;12.45;10.68;;;;;;;21.52;62.35;96412.47;5116571;28;20072;-60
2021/05/27 09:33:37;;;;;;;17.95;11.40;;;;;;;21.17;64.11;96411.81;5116553;28;20026;-67
2021/05/27 09:36:05;;;;;;;;;;;;;;;20.86;64.97;96395.72;5116517;28;20044;-60
2021/05/27 09:38:33;;;;;;;18.77;9.77;;;;;;;20.54;65.45;96397.38;5116233;28;19912;-59
2021/05/27 09:40:59;;;;;;;14.73;10.80;;;;;;;20.08;65.81;96387.66;5116337;28;20023;-64
2021/05/27 09:43:26;;;;;;;11.35;10.18;;;;;;;19.99;66.51;96398.97;5116241;28;20016;-64
2021/05/27 09:46:06;;;;;;;12.57;10.60;;;;;;;20.00;68.19;96411.28;5116093;28;20102;-61
2021/05/27 09:48:33;;;;;;;13.70;12.10;;;;;;;20.13;67.37;96423.59;5116130;28;20024;-61
2021/05/27 09:51:00;;;;;;;13.27;10.88;;;;;;;20.37;68.44;96431.44;5116079;28;20422;-61
2021/05/27 09:53:28;;;;;;;17.33;11.30;;;;;;;20.59;69.92;96437.69;5115932;28;20024;-63
2021/05/27 09:55:58;;;;;;;12.07;10.55;;;;;;;20.78;69.85;96425.56;5116001;28;20016;-63
2021/05/27 09:58:25;;;;;;;13.70;8.45;;;;;;;21.06;68.37;96431.28;5115996;28;20047;-59
2021/05/27 10:00:52;;;;;;;9.40;8.43;;;;;;;21.26;66.16;96436.78;5115890;28;20152;-62
2021/05/27 10:03:31;;;;;;;9.45;7.40;;;;;;;21.33;62.06;96437.94;5115875;28;20031;-59
2021/05/27 10:06:30;;;;;;;8.10;6.70;;;;;;;21.18;62.28;96440.94;5115717;28;20054;-62
2021/05/27 10:08:57;;;;;;;16.80;7.07;;;;;;;21.25;62.88;96435.09;5114754;28;20028;-62
2021/05/27 10:11:25;;;;;;;9.57;6.43;;;;;;;21.32;62.93;96423.81;5115629;28;20032;-58
2021/05/27 10:13:52;;;;;;;9.98;5.60;;;;;;;21.16;60.07;96412.78;5115857;28;20031;-61
2021/05/27 10:16:22;;;;;;;8.90;6.40;;;;;;;20.91;62.37;96410.34;5115103;28;20129;-59
2021/05/27 10:18:49;;;;;;;7.97;6.27;;;;;;;20.63;63.59;96403.75;5115739;28;20031;-55
2021/05/27 10:21:15;;;;;;;10.73;6.32;;;;;;;20.15;65.61;96366.78;5115643;28;20274;-62
2021/05/27 10:23:41;;;;;;;8.82;6.30;;;;;;;19.67;67.20;96312.13;5115331;28;20666;-62
2021/05/27 10:26:07;;;;;;;9.43;6.68;;;;;;;19.21;67.81;96290.03;5115417;28;20032;-62
2021/05/27 10:28:34;;;;;;;9.50;7.05;;;;;;;18.79;68.38;96315.22;5115384;28;20366;-62
2021/05/27 10:31:02;;;;;;;8.30;6.05;;;;;;;18.71;67.54;96334.31;5115456;28;20469;-64
2021/05/27 10:33:37;;;;;;;9.68;6.35;;;;;;;18.87;68.92;96375.59;5115344;28;20024;-55
2021/05/27 10:36:04;;;;;;;10.32;7.20;;;;;;;19.00;70.36;96389.59;5115186;28;20048;-64
2021/05/27 10:38:39;;;;;;;9.38;5.95;;;;;;;19.11;69.39;96399.41;5115232;28;20023;-61
2021/05/27 10:41:15;;;;;;;11.05;6.20;;;;;;;19.29;69.30;96397.19;5115139;28;20485;-59
2021/05/27 10:44:05;;;;;;;8.80;6.50;;;;;;;19.50;68.82;96401.81;5115193;28;20393;-60
2021/05/27 10:46:51;;;;;;;9.80;6.85;;;;;;;19.75;70.25;96409.69;5109659;28;20402;-62
2021/05/27 10:49:40;;;;;;;11.60;6.43;;;;;;;20.09;68.14;96399.13;5104079;28;20032;-60
2021/05/27 10:52:33;;;;;;;10.23;6.63;;;;;;;20.47;67.88;96396.19;5114917;28;20031;-62
2021/05/27 10:54:59;;;;;;;9.90;7.25;;;;;;;20.86;65.95;96396.53;5115046;28;20507;-61
2021/05/27 10:57:39;;;;;;;9.55;5.95;;;;;;;21.15;65.49;96401.28;5114987;28;20107;-65
2021/05/27 11:00:18;;;;;;;6.60;6.00;;;;;;;21.38;62.88;96397.66;5114744;28;20500;-59
2021/05/27 11:02:44;;;;;;;6.28;5.65;;;;;;;21.47;62.60;96386.25;5114702;28;20039;-61
2021/05/27 11:05:21;;;;;;;12.07;6.55;;;;;;;21.69;64.13;96384.41;5114643;28;20016;-61
2021/05/27 11:08:17;;;;;;;8.93;5.18;;;;;;;21.88;62.87;96386.34;5114652;28;20023;-64
2021/05/27 11:10:42;;;;;;;8.35;5.82;;;;;;;22.15;61.73;96398.22;5114521;28;20032;-62
2021/05/27 11:13:08;;;;;;;9.18;5.35;;;;;;;22.48;62.11;96403.38;5114335;28;20038;-61
2021/05/27 11:15:34;;;;;;;7.38;4.43;;;;;;;22.63;55.90;96403.03;5114392;28;20055;-62
2021/05/27 11:18:04;;;;;;;6.68;4.60;;;;;;;22.87;57.97;96393.81;5114310;28;20047;-65
2021/05/27 11:20:31;;;;;;;7.70;4.22;;;;;;;23.09;55.87;96390.00;5114522;28;20363;-64
2021/05/27 11:23:14;;;;;;;5.97;3.53;;;;;;;22.87;54.98;96375.97;5114328;28;20063;-64
2021/05/27 11:25:40;;;;;;;4.80;3.53;;;;;;;22.72;53.19;96381.72;5114209;28;20421;-61
2021/05/27 11:28:25;;;;;;;5.88;3.40;;;;;;;22.90;54.15;96381.00;5114149;28;20116;-62
2021/05/27 11:30:56;;;;;;;5.63;3.03;;;;;;;22.66;51.48;96387.59;5114329;28;20027;-64
2021/05/27 11:33:22;;;;;;;6.00;2.78;;;;;;;22.31;49.67;96395.06;5114253;28;20054;-63
2021/05/27 11:35:53;;;;;;;5.15;2.97;;;;;;;22.05;50.93;96400.00;5113662;28;20504;-62
2021/05/27 11:38:34;;;;;;;;;;;;;;;21.81;50.92;96403.81;5114597;28;20036;-64
2021/05/27 11:41:04;;;;;;;4.10;2.85;;;;;;;21.74;53.66;96397.31;5114219;28;19916;-61
2021/05/27 11:43:41;;;;;;;5.13;3.20;;;;;;;21.64;55.76;96384.78;5113908;28;20020;-64
2021/05/27 11:46:16;;;;;;;5.15;3.40;;;;;;;21.46;55.28;96384.53;5113950;28;20386;-59